sensor_id;sensor_type;location;lat;lon;timestamp;pressure;altitude;pressure_sealevel;temperature;humidity
49915;BME280;35806;47.958;13.158;2023-05-25T00:00:45;94941.37;;;11.15;69.99
49915;BME280;35806;47.958;13.158;2023-05-25T00:03:12;94947.28;;;9.96;72.77
49915;BME280;35806;47.958;13.158;2023-05-25T00:05:40;94946.66;;;11.02;70.62
49915;BME280;35806;47.958;13.158;2023-05-25T00:08:07;94949.25;;;9.79;73.46
49915;BME280;35806;47.958;13.158;2023-05-25T00:10:34;94953.30;;;9.99;73.54
49915;BME280;35806;47.958;13.158;2023-05-25T00:13:01;94953.85;;;10.16;72.39
49915;BME280;35806;47.958;13.158;2023-05-25T00:15:29;94959.94;;;10.34;73.21
49915;BME280;35806;47.958;13.158;2023-05-25T00:17:56;94958.31;;;10.55;72.37
49915;BME280;35806;47.958;13.158;2023-05-25T00:20:23;94961.29;;;10.99;71.48
49915;BME280;35806;47.958;13.158;2023-05-25T00:22:50;94962.30;;;11.16;70.44
49915;BME280;35806;47.958;13.158;2023-05-25T00:25:18;94966.90;;;11.38;70.42
49915;BME280;35806;47.958;13.158;2023-05-25T00:27:45;94962.42;;;10.97;70.11
49915;BME280;35806;47.958;13.158;2023-05-25T00:30:14;94960.33;;;11.75;69.11
49915;BME280;35806;47.958;13.158;2023-05-25T00:32:41;94954.46;;;11.21;70.51
49915;BME280;35806;47.958;13.158;2023-05-25T00:35:08;94952.36;;;11.33;70.12
49915;BME280;35806;47.958;13.158;2023-05-25T00:37:36;94945.66;;;11.73;68.92
49915;BME280;35806;47.958;13.158;2023-05-25T00:40:04;94940.78;;;11.19;69.95
49915;BME280;35806;47.958;13.158;2023-05-25T00:42:33;94938.21;;;10.88;70.31
49915;BME280;35806;47.958;13.158;2023-05-25T00:45:00;94936.05;;;11.13;70.30
49915;BME280;35806;47.958;13.158;2023-05-25T00:47:28;94935.98;;;10.68;71.44
49915;BME280;35806;47.958;13.158;2023-05-25T00:49:55;94937.41;;;10.75;71.20
49915;BME280;35806;47.958;13.158;2023-05-25T00:52:28;94940.08;;;11.30;69.79
49915;BME280;35806;47.958;13.158;2023-05-25T00:54:58;94939.16;;;11.23;69.98
49915;BME280;35806;47.958;13.158;2023-05-25T00:57:27;94939.13;;;11.44;70.07
49915;BME280;35806;47.958;13.158;2023-05-25T00:59:57;94944.56;;;11.91;68.77
49915;BME280;35806;47.958;13.158;2023-05-25T01:16:03;94955.96;;;11.84;68.95
49915;BME280;35806;47.958;13.158;2023-05-25T01:18:31;94960.25;;;12.17;66.18
49915;BME280;35806;47.958;13.158;2023-05-25T01:21:04;94955.63;;;11.43;68.91
49915;BME280;35806;47.958;13.158;2023-05-25T01:23:37;94951.26;;;11.32;69.28
49915;BME280;35806;47.958;13.158;2023-05-25T01:26:10;94952.09;;;11.25;69.53
49915;BME280;35806;47.958;13.158;2023-05-25T01:28:41;94950.40;;;11.01;70.08
49915;BME280;35806;47.958;13.158;2023-05-25T01:31:10;94951.05;;;11.39;68.98
49915;BME280;35806;47.958;13.158;2023-05-25T01:33:37;94952.80;;;11.35;69.84
49915;BME280;35806;47.958;13.158;2023-05-25T01:36:05;94956.10;;;11.52;69.01
49915;BME280;35806;47.958;13.158;2023-05-25T01:38:33;94958.91;;;11.40;69.18
49915;BME280;35806;47.958;13.158;2023-05-25T01:41:00;94959.82;;;11.30;69.45
49915;BME280;35806;47.958;13.158;2023-05-25T01:43:27;94964.74;;;11.78;68.66
49915;BME280;35806;47.958;13.158;2023-05-25T01:46:03;94966.58;;;11.79;68.44
49915;BME280;35806;47.958;13.158;2023-05-25T01:48:39;94962.94;;;11.96;67.44
49915;BME280;35806;47.958;13.158;2023-05-25T01:51:16;94960.09;;;11.24;69.94
49915;BME280;35806;47.958;13.158;2023-05-25T01:53:51;94963.19;;;11.92;67.47
49915;BME280;35806;47.958;13.158;2023-05-25T01:56:20;94964.03;;;11.29;68.68
49915;BME280;35806;47.958;13.158;2023-05-25T01:58:49;94964.87;;;11.45;68.62
49915;BME280;35806;47.958;13.158;2023-05-25T02:01:17;94962.81;;;11.27;68.94
49915;BME280;35806;47.958;13.158;2023-05-25T02:03:46;94960.04;;;11.62;68.49
49915;BME280;35806;47.958;13.158;2023-05-25T02:06:15;94959.61;;;11.44;68.86
49915;BME280;35806;47.958;13.158;2023-05-25T02:08:42;94957.69;;;10.85;69.33
49915;BME280;35806;47.958;13.158;2023-05-25T02:11:12;94957.35;;;11.00;69.32
49915;BME280;35806;47.958;13.158;2023-05-25T02:13:40;94954.89;;;11.52;68.83
49915;BME280;35806;47.958;13.158;2023-05-25T02:16:07;94954.19;;;11.69;67.67
49915;BME280;35806;47.958;13.158;2023-05-25T02:18:35;94951.32;;;10.33;70.57
49915;BME280;35806;47.958;13.158;2023-05-25T02:21:02;94955.05;;;11.48;68.71
49915;BME280;35806;47.958;13.158;2023-05-25T02:23:30;94954.95;;;11.12;68.73
49915;BME280;35806;47.958;13.158;2023-05-25T02:25:57;94953.73;;;11.16;68.65
49915;BME280;35806;47.958;13.158;2023-05-25T02:28:24;94953.30;;;11.19;68.34
49915;BME280;35806;47.958;13.158;2023-05-25T02:30:51;94952.47;;;11.04;68.12
49915;BME280;35806;47.958;13.158;2023-05-25T02:33:17;94949.39;;;11.03;68.66
49915;BME280;35806;47.958;13.158;2023-05-25T02:35:45;94946.16;;;11.08;68.80
49915;BME280;35806;47.958;13.158;2023-05-25T02:38:13;94945.40;;;11.86;67.40
49915;BME280;35806;47.958;13.158;2023-05-25T02:40:40;94943.92;;;11.35;68.33
49915;BME280;35806;47.958;13.158;2023-05-25T02:43:07;94940.13;;;11.18;68.01
49915;BME280;35806;47.958;13.158;2023-05-25T02:45:35;94937.56;;;11.15;69.18
49915;BME280;35806;47.958;13.158;2023-05-25T02:48:02;94933.59;;;10.84;69.64
49915;BME280;35806;47.958;13.158;2023-05-25T02:50:29;94934.46;;;10.39;70.25
49915;BME280;35806;47.958;13.158;2023-05-25T02:52:57;94934.57;;;10.79;70.21
49915;BME280;35806;47.958;13.158;2023-05-25T02:55:24;94934.94;;;10.85;69.80
49915;BME280;35806;47.958;13.158;2023-05-25T02:57:51;94938.86;;;11.14;69.28
49915;BME280;35806;47.958;13.158;2023-05-25T03:00:18;94942.83;;;10.36;70.16
49915;BME280;35806;47.958;13.158;2023-05-25T03:02:46;94946.11;;;11.19;69.02
49915;BME280;35806;47.958;13.158;2023-05-25T03:05:14;94948.65;;;10.31;70.55
49915;BME280;35806;47.958;13.158;2023-05-25T03:07:41;94951.57;;;10.03;72.19
49915;BME280;35806;47.958;13.158;2023-05-25T03:10:10;94952.18;;;11.32;69.31
49915;BME280;35806;47.958;13.158;2023-05-25T03:12:37;94951.21;;;10.37;70.54
49915;BME280;35806;47.958;13.158;2023-05-25T03:15:04;94946.38;;;10.56;70.57
49915;BME280;35806;47.958;13.158;2023-05-25T03:17:31;94949.32;;;10.94;69.69
49915;BME280;35806;47.958;13.158;2023-05-25T03:19:59;94952.78;;;10.85;70.17
49915;BME280;35806;47.958;13.158;2023-05-25T03:22:26;94955.18;;;10.03;71.40
49915;BME280;35806;47.958;13.158;2023-05-25T03:24:53;94960.64;;;10.19;71.34
49915;BME280;35806;47.958;13.158;2023-05-25T03:27:20;94956.17;;;9.48;73.10
49915;BME280;35806;47.958;13.158;2023-05-25T03:29:48;94955.91;;;10.74;70.75
49915;BME280;35806;47.958;13.158;2023-05-25T03:32:16;94957.99;;;9.72;72.30
49915;BME280;35806;47.958;13.158;2023-05-25T03:34:43;94957.49;;;10.53;70.88
49915;BME280;35806;47.958;13.158;2023-05-25T03:37:10;94961.01;;;10.14;71.14
49915;BME280;35806;47.958;13.158;2023-05-25T03:39:37;94963.64;;;10.00;71.11
49915;BME280;35806;47.958;13.158;2023-05-25T03:42:05;94964.83;;;10.53;70.05
49915;BME280;35806;47.958;13.158;2023-05-25T03:44:32;94968.85;;;10.55;69.70
49915;BME280;35806;47.958;13.158;2023-05-25T03:47:00;94974.94;;;9.70;71.64
49915;BME280;35806;47.958;13.158;2023-05-25T03:49:28;94972.92;;;10.60;69.97
49915;BME280;35806;47.958;13.158;2023-05-25T03:51:55;94980.23;;;9.73;71.60
49915;BME280;35806;47.958;13.158;2023-05-25T03:54:23;94980.94;;;10.63;69.92
49915;BME280;35806;47.958;13.158;2023-05-25T03:56:50;94984.45;;;10.12;70.85
49915;BME280;35806;47.958;13.158;2023-05-25T03:59:18;94988.44;;;10.28;70.28
49915;BME280;35806;47.958;13.158;2023-05-25T04:01:44;94984.81;;;10.62;69.01
49915;BME280;35806;47.958;13.158;2023-05-25T04:04:12;94982.31;;;11.04;67.75
49915;BME280;35806;47.958;13.158;2023-05-25T04:06:39;94986.48;;;9.95;69.70
49915;BME280;35806;47.958;13.158;2023-05-25T04:09:06;94987.33;;;10.07;70.61
49915;BME280;35806;47.958;13.158;2023-05-25T04:11:34;94985.72;;;10.71;69.10
49915;BME280;35806;47.958;13.158;2023-05-25T04:14:02;94987.96;;;10.10;70.25
49915;BME280;35806;47.958;13.158;2023-05-25T04:16:29;94986.42;;;10.05;70.77
49915;BME280;35806;47.958;13.158;2023-05-25T04:18:56;94982.69;;;11.09;68.51
49915;BME280;35806;47.958;13.158;2023-05-25T04:21:23;94987.85;;;11.13;67.80
49915;BME280;35806;47.958;13.158;2023-05-25T04:23:51;94990.78;;;11.34;66.31
49915;BME280;35806;47.958;13.158;2023-05-25T04:26:18;94988.86;;;10.75;68.03
49915;BME280;35806;47.958;13.158;2023-05-25T04:29:11;94993.95;;;11.62;66.25
49915;BME280;35806;47.958;13.158;2023-05-25T04:31:38;94990.40;;;10.61;68.04
49915;BME280;35806;47.958;13.158;2023-05-25T04:34:06;94995.89;;;11.32;66.93
49915;BME280;35806;47.958;13.158;2023-05-25T04:36:33;94999.92;;;11.39;66.95
49915;BME280;35806;47.958;13.158;2023-05-25T04:39:00;94999.47;;;11.24;67.06
49915;BME280;35806;47.958;13.158;2023-05-25T04:41:28;94997.27;;;10.79;67.97
49915;BME280;35806;47.958;13.158;2023-05-25T04:43:55;94999.55;;;10.91;67.87
49915;BME280;35806;47.958;13.158;2023-05-25T04:46:22;95004.34;;;10.92;67.65
49915;BME280;35806;47.958;13.158;2023-05-25T04:48:50;94999.90;;;10.42;69.02
49915;BME280;35806;47.958;13.158;2023-05-25T04:51:17;95006.82;;;9.69;71.69
49915;BME280;35806;47.958;13.158;2023-05-25T04:53:44;95003.34;;;10.06;71.85
49915;BME280;35806;47.958;13.158;2023-05-25T04:56:12;95002.61;;;10.34;72.32
49915;BME280;35806;47.958;13.158;2023-05-25T04:58:39;94997.62;;;10.51;70.76
49915;BME280;35806;47.958;13.158;2023-05-25T05:01:07;94998.21;;;10.53;71.09
49915;BME280;35806;47.958;13.158;2023-05-25T05:03:34;95003.26;;;9.66;72.86
49915;BME280;35806;47.958;13.158;2023-05-25T05:06:02;95003.57;;;10.52;71.26
49915;BME280;35806;47.958;13.158;2023-05-25T05:08:29;95001.26;;;10.69;70.93
49915;BME280;35806;47.958;13.158;2023-05-25T05:10:57;95001.44;;;10.58;71.52
49915;BME280;35806;47.958;13.158;2023-05-25T05:13:24;94996.88;;;10.66;70.50
49915;BME280;35806;47.958;13.158;2023-05-25T05:15:51;95000.98;;;10.62;71.16
49915;BME280;35806;47.958;13.158;2023-05-25T05:18:19;95000.87;;;9.89;73.17
49915;BME280;35806;47.958;13.158;2023-05-25T05:20:46;95007.80;;;9.91;73.79
49915;BME280;35806;47.958;13.158;2023-05-25T05:23:13;95003.97;;;9.45;75.34
49915;BME280;35806;47.958;13.158;2023-05-25T05:25:40;95006.11;;;9.51;75.31
49915;BME280;35806;47.958;13.158;2023-05-25T05:28:07;95005.08;;;9.83;74.54
49915;BME280;35806;47.958;13.158;2023-05-25T05:30:35;95005.06;;;9.30;77.46
49915;BME280;35806;47.958;13.158;2023-05-25T05:33:03;95007.84;;;9.93;74.48
49915;BME280;35806;47.958;13.158;2023-05-25T05:35:30;95009.97;;;9.69;75.63
49915;BME280;35806;47.958;13.158;2023-05-25T05:37:57;95011.11;;;10.38;72.48
49915;BME280;35806;47.958;13.158;2023-05-25T05:40:24;95011.24;;;10.52;72.53
49915;BME280;35806;47.958;13.158;2023-05-25T05:42:52;95008.16;;;10.77;70.93
49915;BME280;35806;47.958;13.158;2023-05-25T05:45:19;95010.84;;;9.95;73.81
49915;BME280;35806;47.958;13.158;2023-05-25T05:47:50;95014.69;;;9.96;74.19
49915;BME280;35806;47.958;13.158;2023-05-25T05:50:23;95010.70;;;10.17;73.98
49915;BME280;35806;47.958;13.158;2023-05-25T05:52:50;95010.51;;;10.63;72.90
49915;BME280;35806;47.958;13.158;2023-05-25T05:55:17;95007.76;;;10.65;72.11
49915;BME280;35806;47.958;13.158;2023-05-25T05:57:49;95010.75;;;11.82;69.62
49915;BME280;35806;47.958;13.158;2023-05-25T06:00:17;95015.30;;;11.72;69.27
49915;BME280;35806;47.958;13.158;2023-05-25T06:02:45;95017.47;;;11.54;68.77
49915;BME280;35806;47.958;13.158;2023-05-25T06:05:12;95019.50;;;11.37;69.35
49915;BME280;35806;47.958;13.158;2023-05-25T06:07:39;95016.42;;;11.08;69.77
49915;BME280;35806;47.958;13.158;2023-05-25T06:10:12;95014.58;;;11.13;70.35
49915;BME280;35806;47.958;13.158;2023-05-25T06:12:38;95020.40;;;11.35;69.93
49915;BME280;35806;47.958;13.158;2023-05-25T06:15:07;95023.49;;;11.36;69.38
49915;BME280;35806;47.958;13.158;2023-05-25T06:17:34;95025.58;;;11.32;69.71
49915;BME280;35806;47.958;13.158;2023-05-25T06:20:01;95028.48;;;10.75;70.39
49915;BME280;35806;47.958;13.158;2023-05-25T06:22:29;95028.89;;;10.79;69.79
49915;BME280;35806;47.958;13.158;2023-05-25T06:24:56;95034.37;;;10.92;70.25
49915;BME280;35806;47.958;13.158;2023-05-25T06:27:23;95038.91;;;11.46;69.05
49915;BME280;35806;47.958;13.158;2023-05-25T06:29:51;95036.86;;;11.16;69.72
49915;BME280;35806;47.958;13.158;2023-05-25T06:32:18;95038.37;;;12.08;67.54
49915;BME280;35806;47.958;13.158;2023-05-25T06:34:45;95040.54;;;11.54;68.01
49915;BME280;35806;47.958;13.158;2023-05-25T06:37:12;95047.02;;;11.64;68.56
49915;BME280;35806;47.958;13.158;2023-05-25T06:39:40;95043.02;;;10.97;69.39
49915;BME280;35806;47.958;13.158;2023-05-25T06:42:07;95042.53;;;10.76;70.06
49915;BME280;35806;47.958;13.158;2023-05-25T06:44:34;95044.43;;;11.08;70.82
49915;BME280;35806;47.958;13.158;2023-05-25T06:47:02;95050.31;;;11.39;68.70
49915;BME280;35806;47.958;13.158;2023-05-25T06:49:29;95055.12;;;11.98;68.48
49915;BME280;35806;47.958;13.158;2023-05-25T06:51:56;95056.27;;;12.16;67.01
49915;BME280;35806;47.958;13.158;2023-05-25T06:54:24;95055.33;;;11.60;68.21
49915;BME280;35806;47.958;13.158;2023-05-25T06:56:51;95057.60;;;12.07;66.77
49915;BME280;35806;47.958;13.158;2023-05-25T06:59:19;95058.96;;;12.32;67.05
49915;BME280;35806;47.958;13.158;2023-05-25T07:01:46;95058.02;;;12.19;67.63
49915;BME280;35806;47.958;13.158;2023-05-25T07:04:13;95058.44;;;12.20;67.31
49915;BME280;35806;47.958;13.158;2023-05-25T07:06:40;95059.12;;;11.67;66.69
49915;BME280;35806;47.958;13.158;2023-05-25T07:09:08;95059.88;;;12.24;66.01
49915;BME280;35806;47.958;13.158;2023-05-25T07:11:35;95067.28;;;13.00;65.49
49915;BME280;35806;47.958;13.158;2023-05-25T07:14:02;95068.00;;;13.14;64.33
49915;BME280;35806;47.958;13.158;2023-05-25T07:16:29;95068.76;;;12.60;64.60
49915;BME280;35806;47.958;13.158;2023-05-25T07:19:01;95069.65;;;12.37;65.08
49915;BME280;35806;47.958;13.158;2023-05-25T07:21:31;95072.33;;;12.25;64.85
49915;BME280;35806;47.958;13.158;2023-05-25T07:23:58;95073.12;;;12.60;65.85
49915;BME280;35806;47.958;13.158;2023-05-25T07:26:25;95075.12;;;12.50;64.50
49915;BME280;35806;47.958;13.158;2023-05-25T07:28:52;95074.08;;;12.98;64.22
49915;BME280;35806;47.958;13.158;2023-05-25T07:31:19;95074.47;;;12.21;65.16
49915;BME280;35806;47.958;13.158;2023-05-25T07:33:46;95074.93;;;13.07;63.35
49915;BME280;35806;47.958;13.158;2023-05-25T07:36:13;95073.78;;;12.78;63.70
49915;BME280;35806;47.958;13.158;2023-05-25T07:38:40;95077.07;;;12.61;64.47
49915;BME280;35806;47.958;13.158;2023-05-25T07:41:08;95075.90;;;12.67;64.68
49915;BME280;35806;47.958;13.158;2023-05-25T07:43:35;95075.47;;;12.76;64.84
49915;BME280;35806;47.958;13.158;2023-05-25T07:46:02;95077.46;;;12.43;64.57
49915;BME280;35806;47.958;13.158;2023-05-25T07:48:29;95079.77;;;11.40;67.10
49915;BME280;35806;47.958;13.158;2023-05-25T07:50:57;95079.77;;;11.83;68.01
49915;BME280;35806;47.958;13.158;2023-05-25T07:53:24;95080.45;;;12.58;65.37
49915;BME280;35806;47.958;13.158;2023-05-25T07:55:51;95083.49;;;12.27;66.48
49915;BME280;35806;47.958;13.158;2023-05-25T07:58:18;95083.83;;;12.14;67.89
49915;BME280;35806;47.958;13.158;2023-05-25T08:00:45;95085.13;;;11.62;67.54
49915;BME280;35806;47.958;13.158;2023-05-25T08:03:12;95083.74;;;11.35;69.46
49915;BME280;35806;47.958;13.158;2023-05-25T08:05:39;95089.59;;;11.85;67.96
49915;BME280;35806;47.958;13.158;2023-05-25T08:08:07;95095.93;;;12.21;67.29
49915;BME280;35806;47.958;13.158;2023-05-25T08:10:34;95103.45;;;11.66;68.86
49915;BME280;35806;47.958;13.158;2023-05-25T08:13:11;95102.56;;;12.15;68.48
49915;BME280;35806;47.958;13.158;2023-05-25T08:15:38;95103.17;;;11.80;66.45
49915;BME280;35806;47.958;13.158;2023-05-25T08:18:06;95104.81;;;12.17;67.00
49915;BME280;35806;47.958;13.158;2023-05-25T08:20:33;95104.58;;;12.13;66.46
49915;BME280;35806;47.958;13.158;2023-05-25T08:23:00;95103.60;;;11.77;67.42
49915;BME280;35806;47.958;13.158;2023-05-25T08:25:28;95107.44;;;12.52;65.35
49915;BME280;35806;47.958;13.158;2023-05-25T08:27:55;95106.46;;;12.48;65.76
49915;BME280;35806;47.958;13.158;2023-05-25T08:30:22;95107.78;;;12.91;64.68
49915;BME280;35806;47.958;13.158;2023-05-25T08:32:49;95107.95;;;13.64;63.10
49915;BME280;35806;47.958;13.158;2023-05-25T08:35:16;95107.27;;;12.36;64.37
49915;BME280;35806;47.958;13.158;2023-05-25T08:37:43;95109.71;;;12.40;66.19
49915;BME280;35806;47.958;13.158;2023-05-25T08:40:14;95116.61;;;12.46;65.79
49915;BME280;35806;47.958;13.158;2023-05-25T08:42:42;95116.48;;;13.16;63.38
49915;BME280;35806;47.958;13.158;2023-05-25T08:45:10;95120.51;;;12.44;65.44
49915;BME280;35806;47.958;13.158;2023-05-25T08:47:41;95124.67;;;11.91;65.92
49915;BME280;35806;47.958;13.158;2023-05-25T08:50:10;95126.67;;;12.46;64.66
49915;BME280;35806;47.958;13.158;2023-05-25T08:52:39;95127.37;;;13.00;64.35
49915;BME280;35806;47.958;13.158;2023-05-25T08:55:07;95124.02;;;11.96;64.40
49915;BME280;35806;47.958;13.158;2023-05-25T08:57:41;95126.63;;;12.56;64.27
49915;BME280;35806;47.958;13.158;2023-05-25T09:00:14;95128.69;;;12.45;64.17
49915;BME280;35806;47.958;13.158;2023-05-25T09:02:48;95131.31;;;13.24;64.05
49915;BME280;35806;47.958;13.158;2023-05-25T09:05:17;95132.86;;;12.77;64.33
49915;BME280;35806;47.958;13.158;2023-05-25T09:07:44;95137.59;;;13.25;62.02
49915;BME280;35806;47.958;13.158;2023-05-25T09:10:13;95142.08;;;12.38;63.95
49915;BME280;35806;47.958;13.158;2023-05-25T09:12:41;95140.04;;;13.45;62.46
49915;BME280;35806;47.958;13.158;2023-05-25T09:15:10;95142.28;;;13.94;61.13
49915;BME280;35806;47.958;13.158;2023-05-25T09:17:37;95148.02;;;13.65;62.60
49915;BME280;35806;47.958;13.158;2023-05-25T09:20:07;95148.63;;;12.86;62.82
49915;BME280;35806;47.958;13.158;2023-05-25T09:22:35;95148.39;;;12.19;64.62
49915;BME280;35806;47.958;13.158;2023-05-25T09:25:05;95146.56;;;12.14;65.36
49915;BME280;35806;47.958;13.158;2023-05-25T09:27:34;95151.04;;;12.18;65.07
49915;BME280;35806;47.958;13.158;2023-05-25T09:30:03;95151.69;;;12.21;65.08
49915;BME280;35806;47.958;13.158;2023-05-25T09:32:31;95153.77;;;11.87;66.10
49915;BME280;35806;47.958;13.158;2023-05-25T09:35:06;95156.75;;;11.67;67.16
49915;BME280;35806;47.958;13.158;2023-05-25T09:37:35;95158.33;;;12.46;65.65
49915;BME280;35806;47.958;13.158;2023-05-25T09:40:05;95158.11;;;11.96;66.24
49915;BME280;35806;47.958;13.158;2023-05-25T09:42:32;95161.42;;;13.24;64.37
49915;BME280;35806;47.958;13.158;2023-05-25T09:45:00;95159.11;;;13.52;62.64
49915;BME280;35806;47.958;13.158;2023-05-25T09:47:28;95164.89;;;14.55;60.72
49915;BME280;35806;47.958;13.158;2023-05-25T09:49:56;95168.02;;;13.94;61.82
49915;BME280;35806;47.958;13.158;2023-05-25T09:52:24;95174.68;;;12.97;62.91
49915;BME280;35806;47.958;13.158;2023-05-25T09:54:52;95175.48;;;12.52;63.24
49915;BME280;35806;47.958;13.158;2023-05-25T09:57:19;95174.34;;;13.04;63.29
49915;BME280;35806;47.958;13.158;2023-05-25T09:59:47;95174.79;;;13.48;62.20
49915;BME280;35806;47.958;13.158;2023-05-25T10:02:14;95177.30;;;13.45;62.34
49915;BME280;35806;47.958;13.158;2023-05-25T10:04:41;95172.22;;;13.33;61.36
49915;BME280;35806;47.958;13.158;2023-05-25T10:07:09;95171.70;;;13.47;61.74
49915;BME280;35806;47.958;13.158;2023-05-25T10:09:38;95170.15;;;13.61;61.46
49915;BME280;35806;47.958;13.158;2023-05-25T10:12:07;95171.33;;;13.67;61.31
49915;BME280;35806;47.958;13.158;2023-05-25T10:14:36;95172.76;;;13.17;61.76
49915;BME280;35806;47.958;13.158;2023-05-25T10:17:05;95173.73;;;13.23;62.95
49915;BME280;35806;47.958;13.158;2023-05-25T10:19:36;95172.06;;;13.23;63.08
49915;BME280;35806;47.958;13.158;2023-05-25T10:22:13;95173.69;;;13.47;63.45
49915;BME280;35806;47.958;13.158;2023-05-25T10:24:45;95172.54;;;12.46;65.47
49915;BME280;35806;47.958;13.158;2023-05-25T10:27:19;95176.54;;;13.20;63.70
49915;BME280;35806;47.958;13.158;2023-05-25T10:29:49;95173.37;;;13.89;61.81
49915;BME280;35806;47.958;13.158;2023-05-25T10:32:18;95169.58;;;14.29;60.21
49915;BME280;35806;47.958;13.158;2023-05-25T10:34:46;95173.61;;;14.45;59.68
49915;BME280;35806;47.958;13.158;2023-05-25T10:37:14;95179.30;;;14.90;59.17
49915;BME280;35806;47.958;13.158;2023-05-25T10:39:42;95182.04;;;13.95;60.18
49915;BME280;35806;47.958;13.158;2023-05-25T10:42:09;95178.63;;;12.75;63.40
49915;BME280;35806;47.958;13.158;2023-05-25T10:44:37;95175.44;;;14.40;61.55
49915;BME280;35806;47.958;13.158;2023-05-25T10:47:05;95170.75;;;15.03;59.60
49915;BME280;35806;47.958;13.158;2023-05-25T10:49:34;95174.62;;;14.00;59.25
49915;BME280;35806;47.958;13.158;2023-05-25T10:52:17;95168.25;;;14.28;59.04
49915;BME280;35806;47.958;13.158;2023-05-25T10:54:45;95163.49;;;15.88;57.18
49915;BME280;35806;47.958;13.158;2023-05-25T10:57:32;95159.70;;;15.98;57.75
49915;BME280;35806;47.958;13.158;2023-05-25T11:00:01;95162.83;;;15.19;56.06
49915;BME280;35806;47.958;13.158;2023-05-25T11:02:29;95163.68;;;16.40;54.26
49915;BME280;35806;47.958;13.158;2023-05-25T11:06:01;95155.87;;;16.67;55.43
49915;BME280;35806;47.958;13.158;2023-05-25T11:08:47;95152.77;;;18.75;50.08
49915;BME280;35806;47.958;13.158;2023-05-25T11:11:15;95151.62;;;18.05;51.14
49915;BME280;35806;47.958;13.158;2023-05-25T11:13:44;95146.79;;;18.69;51.33
49915;BME280;35806;47.958;13.158;2023-05-25T11:16:13;95145.62;;;18.25;47.99
49915;BME280;35806;47.958;13.158;2023-05-25T11:18:41;95146.14;;;17.22;51.02
49915;BME280;35806;47.958;13.158;2023-05-25T11:21:13;95144.40;;;17.46;50.25
49915;BME280;35806;47.958;13.158;2023-05-25T11:23:52;95137.69;;;16.87;51.79
49915;BME280;35806;47.958;13.158;2023-05-25T11:26:21;95139.62;;;16.84;53.25
49915;BME280;35806;47.958;13.158;2023-05-25T11:28:50;95141.22;;;17.89;53.22
49915;BME280;35806;47.958;13.158;2023-05-25T11:31:19;95139.97;;;18.43;49.52
49915;BME280;35806;47.958;13.158;2023-05-25T11:33:47;95144.19;;;17.39;50.07
49915;BME280;35806;47.958;13.158;2023-05-25T11:36:14;95143.34;;;16.69;50.03
49915;BME280;35806;47.958;13.158;2023-05-25T11:38:42;95142.29;;;18.30;50.79
49915;BME280;35806;47.958;13.158;2023-05-25T11:41:15;95133.14;;;18.12;52.20
49915;BME280;35806;47.958;13.158;2023-05-25T11:43:45;95132.66;;;16.42;52.25
49915;BME280;35806;47.958;13.158;2023-05-25T11:46:12;95131.30;;;17.10;51.14
49915;BME280;35806;47.958;13.158;2023-05-25T11:48:42;95126.25;;;16.59;51.80
49915;BME280;35806;47.958;13.158;2023-05-25T11:51:09;95126.94;;;16.84;51.80
49915;BME280;35806;47.958;13.158;2023-05-25T11:53:41;95120.59;;;16.60;54.52
49915;BME280;35806;47.958;13.158;2023-05-25T11:56:09;95117.47;;;17.36;52.90
49915;BME280;35806;47.958;13.158;2023-05-25T11:58:37;95115.88;;;16.46;51.93
49915;BME280;35806;47.958;13.158;2023-05-25T12:01:13;95111.38;;;16.68;52.28
49915;BME280;35806;47.958;13.158;2023-05-25T12:03:41;95112.93;;;16.38;56.16
49915;BME280;35806;47.958;13.158;2023-05-25T12:06:08;95112.93;;;17.80;51.02
49915;BME280;35806;47.958;13.158;2023-05-25T12:08:36;95111.29;;;16.84;51.87
49915;BME280;35806;47.958;13.158;2023-05-25T12:11:03;95103.95;;;18.19;52.30
49915;BME280;35806;47.958;13.158;2023-05-25T12:13:30;95100.71;;;18.15;49.28
49915;BME280;35806;47.958;13.158;2023-05-25T12:15:58;95099.96;;;18.36;49.69
49915;BME280;35806;47.958;13.158;2023-05-25T12:18:26;95098.99;;;17.84;51.22
49915;BME280;35806;47.958;13.158;2023-05-25T12:20:55;95094.80;;;17.69;51.81
49915;BME280;35806;47.958;13.158;2023-05-25T12:23:23;95100.02;;;17.20;50.59
49915;BME280;35806;47.958;13.158;2023-05-25T12:26:07;95096.34;;;18.12;51.08
49915;BME280;35806;47.958;13.158;2023-05-25T12:28:35;95098.75;;;17.64;50.19
49915;BME280;35806;47.958;13.158;2023-05-25T12:31:19;95095.06;;;19.40;49.56
49915;BME280;35806;47.958;13.158;2023-05-25T12:33:46;95096.58;;;18.16;48.68
49915;BME280;35806;47.958;13.158;2023-05-25T12:36:46;95095.02;;;19.31;47.80
49915;BME280;35806;47.958;13.158;2023-05-25T12:39:15;95091.24;;;20.27;44.77
49915;BME280;35806;47.958;13.158;2023-05-25T12:41:44;95096.07;;;18.66;46.40
49915;BME280;35806;47.958;13.158;2023-05-25T12:44:17;95089.00;;;19.73;44.05
49915;BME280;35806;47.958;13.158;2023-05-25T12:46:45;95091.76;;;17.96;47.35
49915;BME280;35806;47.958;13.158;2023-05-25T12:49:30;95092.79;;;18.23;47.78
49915;BME280;35806;47.958;13.158;2023-05-25T12:51:59;95089.13;;;19.40;46.83
49915;BME280;35806;47.958;13.158;2023-05-25T12:54:36;95089.89;;;17.70;50.27
49915;BME280;35806;47.958;13.158;2023-05-25T12:57:05;95088.76;;;19.25;48.80
49915;BME280;35806;47.958;13.158;2023-05-25T12:59:33;95092.10;;;17.93;51.39
49915;BME280;35806;47.958;13.158;2023-05-25T13:02:01;95091.76;;;17.57;48.92
49915;BME280;35806;47.958;13.158;2023-05-25T13:04:29;95089.31;;;17.87;50.94
49915;BME280;35806;47.958;13.158;2023-05-25T13:06:56;95087.62;;;18.51;48.76
49915;BME280;35806;47.958;13.158;2023-05-25T13:09:25;95085.78;;;19.13;48.54
49915;BME280;35806;47.958;13.158;2023-05-25T13:11:52;95088.23;;;18.27;48.56